sensor_id;sensor_type;location;lat;lon;timestamp;P1;durP1;ratioP1;P2;durP2;ratioP2
3453;SDS011;1741;51.294;8.608;2024-01-16T00:00:57;19.83;;;5.90;;
3453;SDS011;1741;51.294;8.608;2024-01-16T00:03:26;19.10;;;6.80;;
3453;SDS011;1741;51.294;8.608;2024-01-16T00:05:53;20.10;;;6.20;;
3453;SDS011;1741;51.294;8.608;2024-01-16T00:08:21;24.43;;;6.37;;
3453;SDS011;1741;51.294;8.608;2024-01-16T00:10:50;15.83;;;6.50;;
3453;SDS011;1741;51.294;8.608;2024-01-16T00:13:39;20.90;;;7.00;;
3453;SDS011;1741;51.294;8.608;2024-01-16T00:16:15;13.97;;;6.17;;
3453;SDS011;1741;51.294;8.608;2024-01-16T00:19:02;26.13;;;6.43;;
3453;SDS011;1741;51.294;8.608;2024-01-16T00:21:32;13.27;;;5.90;;
3453;SDS011;1741;51.294;8.608;2024-01-16T00:24:09;14.10;;;6.20;;
3453;SDS011;1741;51.294;8.608;2024-01-16T00:26:41;11.23;;;6.13;;
3453;SDS011;1741;51.294;8.608;2024-01-16T00:29:17;16.37;;;7.00;;
3453;SDS011;1741;51.294;8.608;2024-01-16T00:31:44;14.73;;;7.03;;
3453;SDS011;1741;51.294;8.608;2024-01-16T00:34:13;16.40;;;6.97;;
3453;SDS011;1741;51.294;8.608;2024-01-16T00:36:40;13.10;;;6.90;;
3453;SDS011;1741;51.294;8.608;2024-01-16T00:39:08;14.27;;;6.67;;
3453;SDS011;1741;51.294;8.608;2024-01-16T00:41:39;15.87;;;7.60;;
3453;SDS011;1741;51.294;8.608;2024-01-16T00:44:06;16.10;;;6.40;;
3453;SDS011;1741;51.294;8.608;2024-01-16T00:46:34;15.33;;;5.80;;
3453;SDS011;1741;51.294;8.608;2024-01-16T00:49:01;15.87;;;6.50;;
3453;SDS011;1741;51.294;8.608;2024-01-16T00:51:29;13.30;;;6.30;;
3453;SDS011;1741;51.294;8.608;2024-01-16T00:53:56;14.13;;;5.70;;
3453;SDS011;1741;51.294;8.608;2024-01-16T00:56:23;11.67;;;6.37;;
3453;SDS011;1741;51.294;8.608;2024-01-16T00:58:50;11.73;;;7.17;;
3453;SDS011;1741;51.294;8.608;2024-01-16T01:01:25;12.67;;;6.17;;
3453;SDS011;1741;51.294;8.608;2024-01-16T01:03:55;13.80;;;6.20;;
3453;SDS011;1741;51.294;8.608;2024-01-16T01:06:22;13.10;;;6.50;;
3453;SDS011;1741;51.294;8.608;2024-01-16T01:08:49;16.23;;;6.03;;
3453;SDS011;1741;51.294;8.608;2024-01-16T01:11:17;19.13;;;6.93;;
3453;SDS011;1741;51.294;8.608;2024-01-16T01:13:47;14.67;;;6.83;;
3453;SDS011;1741;51.294;8.608;2024-01-16T01:16:14;21.30;;;7.07;;
3453;SDS011;1741;51.294;8.608;2024-01-16T01:18:41;17.47;;;6.97;;
3453;SDS011;1741;51.294;8.608;2024-01-16T01:21:09;21.97;;;7.27;;
3453;SDS011;1741;51.294;8.608;2024-01-16T01:23:36;16.80;;;7.43;;
3453;SDS011;1741;51.294;8.608;2024-01-16T01:26:03;16.23;;;7.27;;
3453;SDS011;1741;51.294;8.608;2024-01-16T01:28:31;23.30;;;7.50;;
3453;SDS011;1741;51.294;8.608;2024-01-16T01:30:58;21.97;;;7.63;;
3453;SDS011;1741;51.294;8.608;2024-01-16T01:33:25;19.90;;;7.30;;
3453;SDS011;1741;51.294;8.608;2024-01-16T01:35:53;15.13;;;7.40;;
3453;SDS011;1741;51.294;8.608;2024-01-16T01:38:20;15.63;;;7.60;;
3453;SDS011;1741;51.294;8.608;2024-01-16T01:40:47;17.73;;;8.10;;
3453;SDS011;1741;51.294;8.608;2024-01-16T01:43:19;18.03;;;8.23;;
3453;SDS011;1741;51.294;8.608;2024-01-16T01:46:33;29.03;;;7.87;;
3453;SDS011;1741;51.294;8.608;2024-01-16T01:48:40;27.33;;;8.27;;
3453;SDS011;1741;51.294;8.608;2024-01-16T01:51:09;19.70;;;8.20;;
3453;SDS011;1741;51.294;8.608;2024-01-16T01:53:38;21.20;;;7.57;;
3453;SDS011;1741;51.294;8.608;2024-01-16T01:56:07;19.30;;;7.30;;
3453;SDS011;1741;51.294;8.608;2024-01-16T01:58:37;25.40;;;8.03;;
3453;SDS011;1741;51.294;8.608;2024-01-16T02:01:05;22.10;;;8.10;;
3453;SDS011;1741;51.294;8.608;2024-01-16T02:03:35;21.83;;;7.27;;
3453;SDS011;1741;51.294;8.608;2024-01-16T02:06:07;26.00;;;8.10;;
3453;SDS011;1741;51.294;8.608;2024-01-16T02:08:36;16.70;;;7.87;;
3453;SDS011;1741;51.294;8.608;2024-01-16T02:11:05;24.53;;;7.80;;
3453;SDS011;1741;51.294;8.608;2024-01-16T02:13:32;21.37;;;8.10;;
3453;SDS011;1741;51.294;8.608;2024-01-16T02:16:02;18.20;;;7.17;;
3453;SDS011;1741;51.294;8.608;2024-01-16T02:18:32;19.77;;;7.57;;
3453;SDS011;1741;51.294;8.608;2024-01-16T02:21:00;21.17;;;7.60;;
3453;SDS011;1741;51.294;8.608;2024-01-16T02:23:29;20.03;;;6.90;;
3453;SDS011;1741;51.294;8.608;2024-01-16T02:25:57;18.03;;;7.73;;
3453;SDS011;1741;51.294;8.608;2024-01-16T02:28:25;17.67;;;6.83;;
3453;SDS011;1741;51.294;8.608;2024-01-16T02:30:52;15.67;;;7.20;;
3453;SDS011;1741;51.294;8.608;2024-01-16T02:33:19;15.60;;;7.10;;
3453;SDS011;1741;51.294;8.608;2024-01-16T02:35:46;14.90;;;6.30;;
3453;SDS011;1741;51.294;8.608;2024-01-16T02:38:15;18.97;;;7.30;;
3453;SDS011;1741;51.294;8.608;2024-01-16T02:40:42;18.07;;;7.53;;
3453;SDS011;1741;51.294;8.608;2024-01-16T02:43:10;16.50;;;8.27;;
3453;SDS011;1741;51.294;8.608;2024-01-16T02:45:39;21.67;;;8.23;;
3453;SDS011;1741;51.294;8.608;2024-01-16T02:48:06;21.00;;;8.67;;
3453;SDS011;1741;51.294;8.608;2024-01-16T02:50:33;20.30;;;8.10;;
3453;SDS011;1741;51.294;8.608;2024-01-16T02:53:02;20.50;;;8.63;;
3453;SDS011;1741;51.294;8.608;2024-01-16T02:55:30;21.53;;;8.50;;
3453;SDS011;1741;51.294;8.608;2024-01-16T02:57:57;17.13;;;8.50;;
3453;SDS011;1741;51.294;8.608;2024-01-16T03:00:24;16.13;;;7.77;;
3453;SDS011;1741;51.294;8.608;2024-01-16T03:02:51;15.37;;;7.47;;
3453;SDS011;1741;51.294;8.608;2024-01-16T03:05:19;20.23;;;7.77;;
3453;SDS011;1741;51.294;8.608;2024-01-16T03:07:46;15.80;;;7.33;;
3453;SDS011;1741;51.294;8.608;2024-01-16T03:10:13;14.87;;;7.20;;
3453;SDS011;1741;51.294;8.608;2024-01-16T03:12:40;17.90;;;6.30;;
3453;SDS011;1741;51.294;8.608;2024-01-16T03:15:08;18.03;;;7.30;;
3453;SDS011;1741;51.294;8.608;2024-01-16T03:17:36;15.93;;;6.13;;
3453;SDS011;1741;51.294;8.608;2024-01-16T03:20:03;20.10;;;7.90;;
3453;SDS011;1741;51.294;8.608;2024-01-16T03:22:31;15.23;;;7.37;;
3453;SDS011;1741;51.294;8.608;2024-01-16T03:24:58;16.17;;;7.57;;
3453;SDS011;1741;51.294;8.608;2024-01-16T03:27:27;18.93;;;6.77;;
3453;SDS011;1741;51.294;8.608;2024-01-16T03:29:54;19.77;;;7.33;;
3453;SDS011;1741;51.294;8.608;2024-01-16T03:32:23;15.07;;;6.97;;
3453;SDS011;1741;51.294;8.608;2024-01-16T03:34:50;25.60;;;9.30;;
3453;SDS011;1741;51.294;8.608;2024-01-16T03:37:18;26.50;;;7.37;;
3453;SDS011;1741;51.294;8.608;2024-01-16T03:39:46;19.73;;;7.93;;
3453;SDS011;1741;51.294;8.608;2024-01-16T03:42:13;21.20;;;7.40;;
3453;SDS011;1741;51.294;8.608;2024-01-16T03:44:41;19.03;;;7.33;;
3453;SDS011;1741;51.294;8.608;2024-01-16T03:47:08;19.27;;;7.70;;
3453;SDS011;1741;51.294;8.608;2024-01-16T03:49:36;20.40;;;7.37;;
3453;SDS011;1741;51.294;8.608;2024-01-16T03:52:03;14.60;;;7.20;;
3453;SDS011;1741;51.294;8.608;2024-01-16T03:54:31;19.87;;;8.67;;
3453;SDS011;1741;51.294;8.608;2024-01-16T03:56:58;22.43;;;8.10;;
3453;SDS011;1741;51.294;8.608;2024-01-16T03:59:25;22.43;;;6.90;;
3453;SDS011;1741;51.294;8.608;2024-01-16T04:01:52;23.90;;;7.20;;
3453;SDS011;1741;51.294;8.608;2024-01-16T04:04:19;16.90;;;7.30;;
3453;SDS011;1741;51.294;8.608;2024-01-16T04:06:46;23.60;;;7.67;;
3453;SDS011;1741;51.294;8.608;2024-01-16T04:09:13;25.77;;;8.07;;
3453;SDS011;1741;51.294;8.608;2024-01-16T04:11:41;21.33;;;8.10;;
3453;SDS011;1741;51.294;8.608;2024-01-16T04:14:09;16.17;;;7.50;;
3453;SDS011;1741;51.294;8.608;2024-01-16T04:16:36;21.00;;;5.77;;
3453;SDS011;1741;51.294;8.608;2024-01-16T04:19:03;19.53;;;6.80;;
3453;SDS011;1741;51.294;8.608;2024-01-16T04:21:30;17.93;;;7.33;;
3453;SDS011;1741;51.294;8.608;2024-01-16T04:23:58;23.80;;;7.30;;
3453;SDS011;1741;51.294;8.608;2024-01-16T04:26:25;22.13;;;8.33;;
3453;SDS011;1741;51.294;8.608;2024-01-16T04:28:52;25.10;;;8.70;;
3453;SDS011;1741;51.294;8.608;2024-01-16T04:31:20;17.00;;;6.70;;
3453;SDS011;1741;51.294;8.608;2024-01-16T04:33:50;20.40;;;7.50;;
3453;SDS011;1741;51.294;8.608;2024-01-16T04:36:17;24.03;;;7.73;;
3453;SDS011;1741;51.294;8.608;2024-01-16T04:38:47;17.17;;;6.93;;
3453;SDS011;1741;51.294;8.608;2024-01-16T04:41:17;23.73;;;7.40;;
3453;SDS011;1741;51.294;8.608;2024-01-16T04:43:47;20.30;;;7.57;;
3453;SDS011;1741;51.294;8.608;2024-01-16T04:46:16;23.13;;;7.63;;
3453;SDS011;1741;51.294;8.608;2024-01-16T04:48:43;20.07;;;7.03;;
3453;SDS011;1741;51.294;8.608;2024-01-16T04:51:11;20.87;;;7.00;;
3453;SDS011;1741;51.294;8.608;2024-01-16T04:53:38;25.80;;;7.30;;
3453;SDS011;1741;51.294;8.608;2024-01-16T04:56:07;23.90;;;7.30;;
3453;SDS011;1741;51.294;8.608;2024-01-16T04:58:34;22.30;;;6.90;;
3453;SDS011;1741;51.294;8.608;2024-01-16T05:01:02;29.23;;;6.73;;
3453;SDS011;1741;51.294;8.608;2024-01-16T05:03:30;34.00;;;7.53;;
3453;SDS011;1741;51.294;8.608;2024-01-16T05:05:58;24.50;;;7.30;;
3453;SDS011;1741;51.294;8.608;2024-01-16T05:08:26;25.53;;;6.40;;
3453;SDS011;1741;51.294;8.608;2024-01-16T05:10:56;23.47;;;6.90;;
3453;SDS011;1741;51.294;8.608;2024-01-16T05:13:25;32.17;;;7.90;;
3453;SDS011;1741;51.294;8.608;2024-01-16T05:15:54;24.57;;;7.10;;
3453;SDS011;1741;51.294;8.608;2024-01-16T05:18:22;27.10;;;6.83;;
3453;SDS011;1741;51.294;8.608;2024-01-16T05:20:50;25.17;;;7.10;;
3453;SDS011;1741;51.294;8.608;2024-01-16T05:23:18;30.73;;;8.43;;
3453;SDS011;1741;51.294;8.608;2024-01-16T05:25:45;36.93;;;8.37;;
3453;SDS011;1741;51.294;8.608;2024-01-16T05:28:12;23.77;;;7.40;;
3453;SDS011;1741;51.294;8.608;2024-01-16T05:30:46;24.30;;;6.33;;
3453;SDS011;1741;51.294;8.608;2024-01-16T05:33:14;35.50;;;6.63;;
3453;SDS011;1741;51.294;8.608;2024-01-16T05:35:41;32.90;;;7.30;;
3453;SDS011;1741;51.294;8.608;2024-01-16T05:38:08;36.43;;;7.30;;
3453;SDS011;1741;51.294;8.608;2024-01-16T05:40:38;40.83;;;8.60;;
3453;SDS011;1741;51.294;8.608;2024-01-16T05:43:06;29.90;;;7.50;;
3453;SDS011;1741;51.294;8.608;2024-01-16T05:45:35;31.90;;;7.10;;
3453;SDS011;1741;51.294;8.608;2024-01-16T05:48:02;29.23;;;6.87;;
3453;SDS011;1741;51.294;8.608;2024-01-16T05:50:33;33.93;;;7.27;;
3453;SDS011;1741;51.294;8.608;2024-01-16T05:53:01;30.27;;;7.17;;
3453;SDS011;1741;51.294;8.608;2024-01-16T05:55:32;31.50;;;7.50;;
3453;SDS011;1741;51.294;8.608;2024-01-16T05:58:01;30.70;;;6.50;;
3453;SDS011;1741;51.294;8.608;2024-01-16T06:00:31;43.13;;;7.63;;
3453;SDS011;1741;51.294;8.608;2024-01-16T06:03:00;29.20;;;7.00;;
3453;SDS011;1741;51.294;8.608;2024-01-16T06:05:27;25.67;;;7.10;;
3453;SDS011;1741;51.294;8.608;2024-01-16T06:07:54;31.33;;;7.60;;
3453;SDS011;1741;51.294;8.608;2024-01-16T06:10:21;33.00;;;7.47;;
3453;SDS011;1741;51.294;8.608;2024-01-16T06:12:48;32.63;;;7.10;;
3453;SDS011;1741;51.294;8.608;2024-01-16T06:15:15;41.63;;;7.57;;
3453;SDS011;1741;51.294;8.608;2024-01-16T06:17:43;28.90;;;7.10;;
3453;SDS011;1741;51.294;8.608;2024-01-16T06:20:11;34.60;;;7.43;;
3453;SDS011;1741;51.294;8.608;2024-01-16T06:22:38;29.80;;;6.90;;
3453;SDS011;1741;51.294;8.608;2024-01-16T06:25:06;39.47;;;7.80;;
3453;SDS011;1741;51.294;8.608;2024-01-16T06:27:33;33.87;;;8.10;;
3453;SDS011;1741;51.294;8.608;2024-01-16T06:30:00;32.40;;;7.13;;
3453;SDS011;1741;51.294;8.608;2024-01-16T06:32:28;38.70;;;7.97;;
3453;SDS011;1741;51.294;8.608;2024-01-16T06:34:57;39.50;;;8.50;;
3453;SDS011;1741;51.294;8.608;2024-01-16T06:37:27;37.00;;;7.73;;
3453;SDS011;1741;51.294;8.608;2024-01-16T06:39:54;34.13;;;7.30;;
3453;SDS011;1741;51.294;8.608;2024-01-16T06:42:21;35.00;;;8.00;;
3453;SDS011;1741;51.294;8.608;2024-01-16T06:44:48;31.27;;;6.83;;
3453;SDS011;1741;51.294;8.608;2024-01-16T06:47:18;34.40;;;7.00;;
3453;SDS011;1741;51.294;8.608;2024-01-16T06:49:45;33.90;;;7.80;;
3453;SDS011;1741;51.294;8.608;2024-01-16T06:52:12;38.50;;;7.40;;
3453;SDS011;1741;51.294;8.608;2024-01-16T06:54:39;32.20;;;7.73;;
3453;SDS011;1741;51.294;8.608;2024-01-16T06:57:06;33.93;;;7.23;;
3453;SDS011;1741;51.294;8.608;2024-01-16T06:59:33;44.43;;;8.03;;
3453;SDS011;1741;51.294;8.608;2024-01-16T07:02:01;36.70;;;8.00;;
3453;SDS011;1741;51.294;8.608;2024-01-16T07:04:29;33.53;;;7.77;;
3453;SDS011;1741;51.294;8.608;2024-01-16T07:06:56;31.90;;;7.50;;
3453;SDS011;1741;51.294;8.608;2024-01-16T07:09:26;42.70;;;8.20;;
3453;SDS011;1741;51.294;8.608;2024-01-16T07:11:55;38.03;;;8.70;;
3453;SDS011;1741;51.294;8.608;2024-01-16T07:14:25;33.90;;;8.10;;
3453;SDS011;1741;51.294;8.608;2024-01-16T07:16:55;32.03;;;8.40;;
3453;SDS011;1741;51.294;8.608;2024-01-16T07:19:22;39.53;;;8.97;;
3453;SDS011;1741;51.294;8.608;2024-01-16T07:21:53;35.57;;;8.73;;
3453;SDS011;1741;51.294;8.608;2024-01-16T07:24:20;36.07;;;8.93;;
3453;SDS011;1741;51.294;8.608;2024-01-16T07:26:48;33.83;;;7.53;;
3453;SDS011;1741;51.294;8.608;2024-01-16T07:29:16;41.40;;;9.33;;
3453;SDS011;1741;51.294;8.608;2024-01-16T07:31:46;36.37;;;8.63;;
3453;SDS011;1741;51.294;8.608;2024-01-16T07:34:15;43.07;;;8.30;;
3453;SDS011;1741;51.294;8.608;2024-01-16T07:36:48;33.70;;;8.30;;
3453;SDS011;1741;51.294;8.608;2024-01-16T07:39:15;33.97;;;7.97;;
3453;SDS011;1741;51.294;8.608;2024-01-16T07:41:44;35.00;;;8.00;;
3453;SDS011;1741;51.294;8.608;2024-01-16T07:44:16;33.17;;;7.47;;
3453;SDS011;1741;51.294;8.608;2024-01-16T07:46:46;32.77;;;8.30;;
3453;SDS011;1741;51.294;8.608;2024-01-16T07:49:13;35.57;;;8.07;;
3453;SDS011;1741;51.294;8.608;2024-01-16T07:51:42;35.50;;;7.97;;
3453;SDS011;1741;51.294;8.608;2024-01-16T07:54:09;34.50;;;8.00;;
3453;SDS011;1741;51.294;8.608;2024-01-16T07:56:46;34.50;;;8.90;;
3453;SDS011;1741;51.294;8.608;2024-01-16T07:59:14;31.23;;;8.17;;
3453;SDS011;1741;51.294;8.608;2024-01-16T08:01:43;32.53;;;7.50;;
3453;SDS011;1741;51.294;8.608;2024-01-16T08:04:10;30.30;;;7.30;;
3453;SDS011;1741;51.294;8.608;2024-01-16T08:06:37;34.10;;;7.40;;
3453;SDS011;1741;51.294;8.608;2024-01-16T08:09:05;33.80;;;8.40;;
3453;SDS011;1741;51.294;8.608;2024-01-16T08:11:32;34.87;;;7.83;;
3453;SDS011;1741;51.294;8.608;2024-01-16T08:14:02;32.27;;;7.67;;
3453;SDS011;1741;51.294;8.608;2024-01-16T08:16:32;35.17;;;8.13;;
3453;SDS011;1741;51.294;8.608;2024-01-16T08:18:59;32.97;;;7.70;;
3453;SDS011;1741;51.294;8.608;2024-01-16T08:21:26;38.53;;;7.83;;
3453;SDS011;1741;51.294;8.608;2024-01-16T08:23:53;31.73;;;8.13;;
3453;SDS011;1741;51.294;8.608;2024-01-16T08:26:21;35.40;;;9.10;;
3453;SDS011;1741;51.294;8.608;2024-01-16T08:28:47;35.40;;;8.13;;
3453;SDS011;1741;51.294;8.608;2024-01-16T08:31:18;38.80;;;10.53;;
3453;SDS011;1741;51.294;8.608;2024-01-16T08:33:45;33.73;;;8.20;;
3453;SDS011;1741;51.294;8.608;2024-01-16T08:36:15;34.63;;;8.47;;
3453;SDS011;1741;51.294;8.608;2024-01-16T08:38:44;36.20;;;9.20;;
3453;SDS011;1741;51.294;8.608;2024-01-16T08:41:11;35.03;;;9.03;;
3453;SDS011;1741;51.294;8.608;2024-01-16T08:43:39;46.53;;;8.83;;
3453;SDS011;1741;51.294;8.608;2024-01-16T08:46:06;34.93;;;9.03;;
3453;SDS011;1741;51.294;8.608;2024-01-16T08:48:34;36.77;;;9.40;;
3453;SDS011;1741;51.294;8.608;2024-01-16T08:51:06;40.63;;;8.77;;
3453;SDS011;1741;51.294;8.608;2024-01-16T08:53:38;38.47;;;9.03;;
3453;SDS011;1741;51.294;8.608;2024-01-16T08:56:10;38.07;;;8.50;;
3453;SDS011;1741;51.294;8.608;2024-01-16T08:58:39;34.67;;;9.47;;
3453;SDS011;1741;51.294;8.608;2024-01-16T09:01:07;32.30;;;8.80;;
3453;SDS011;1741;51.294;8.608;2024-01-16T09:03:35;35.43;;;8.67;;
3453;SDS011;1741;51.294;8.608;2024-01-16T09:06:02;39.40;;;9.37;;
3453;SDS011;1741;51.294;8.608;2024-01-16T09:08:30;41.57;;;8.80;;
3453;SDS011;1741;51.294;8.608;2024-01-16T09:11:00;38.60;;;9.67;;
3453;SDS011;1741;51.294;8.608;2024-01-16T09:13:27;33.87;;;9.50;;
3453;SDS011;1741;51.294;8.608;2024-01-16T09:15:54;36.60;;;10.13;;
3453;SDS011;1741;51.294;8.608;2024-01-16T09:18:28;37.60;;;9.50;;
3453;SDS011;1741;51.294;8.608;2024-01-16T09:20:57;33.80;;;9.40;;
3453;SDS011;1741;51.294;8.608;2024-01-16T09:23:24;34.60;;;9.10;;
3453;SDS011;1741;51.294;8.608;2024-01-16T09:25:52;38.87;;;9.13;;
3453;SDS011;1741;51.294;8.608;2024-01-16T09:28:19;39.07;;;9.63;;
3453;SDS011;1741;51.294;8.608;2024-01-16T09:30:46;34.37;;;9.67;;
3453;SDS011;1741;51.294;8.608;2024-01-16T09:33:16;34.47;;;9.23;;
3453;SDS011;1741;51.294;8.608;2024-01-16T09:35:44;43.00;;;9.80;;
3453;SDS011;1741;51.294;8.608;2024-01-16T09:38:12;33.90;;;9.47;;
3453;SDS011;1741;51.294;8.608;2024-01-16T09:40:44;37.23;;;10.80;;
3453;SDS011;1741;51.294;8.608;2024-01-16T09:43:12;50.67;;;11.30;;
3453;SDS011;1741;51.294;8.608;2024-01-16T09:45:40;35.33;;;10.43;;
3453;SDS011;1741;51.294;8.608;2024-01-16T09:48:07;35.73;;;9.93;;
3453;SDS011;1741;51.294;8.608;2024-01-16T09:50:35;34.80;;;9.10;;
3453;SDS011;1741;51.294;8.608;2024-01-16T09:53:02;40.13;;;9.80;;
3453;SDS011;1741;51.294;8.608;2024-01-16T09:55:30;41.53;;;10.60;;
3453;SDS011;1741;51.294;8.608;2024-01-16T09:57:57;45.40;;;10.33;;
3453;SDS011;1741;51.294;8.608;2024-01-16T10:00:24;37.10;;;9.43;;
3453;SDS011;1741;51.294;8.608;2024-01-16T10:02:53;39.70;;;11.53;;
3453;SDS011;1741;51.294;8.608;2024-01-16T10:05:26;39.03;;;10.90;;
3453;SDS011;1741;51.294;8.608;2024-01-16T10:07:55;37.07;;;10.83;;
3453;SDS011;1741;51.294;8.608;2024-01-16T10:10:23;37.93;;;11.13;;
3453;SDS011;1741;51.294;8.608;2024-01-16T10:13:12;37.30;;;10.80;;
3453;SDS011;1741;51.294;8.608;2024-01-16T10:15:41;39.53;;;11.80;;
3453;SDS011;1741;51.294;8.608;2024-01-16T10:21:19;37.67;;;10.60;;
3453;SDS011;1741;51.294;8.608;2024-01-16T10:23:49;37.60;;;10.30;;
3453;SDS011;1741;51.294;8.608;2024-01-16T10:26:16;41.10;;;11.10;;
3453;SDS011;1741;51.294;8.608;2024-01-16T10:28:47;39.27;;;11.10;;
3453;SDS011;1741;51.294;8.608;2024-01-16T10:31:14;40.23;;;11.40;;
3453;SDS011;1741;51.294;8.608;2024-01-16T10:33:42;45.30;;;11.50;;
3453;SDS011;1741;51.294;8.608;2024-01-16T10:36:13;38.60;;;10.70;;
3453;SDS011;1741;51.294;8.608;2024-01-16T10:38:46;39.47;;;10.17;;
3453;SDS011;1741;51.294;8.608;2024-01-16T10:41:17;33.90;;;9.30;;
3453;SDS011;1741;51.294;8.608;2024-01-16T10:43:44;34.77;;;10.50;;
3453;SDS011;1741;51.294;8.608;2024-01-16T10:46:15;45.87;;;11.27;;
3453;SDS011;1741;51.294;8.608;2024-01-16T10:51:27;35.57;;;10.53;;
3453;SDS011;1741;51.294;8.608;2024-01-16T10:56:27;35.43;;;11.40;;
3453;SDS011;1741;51.294;8.608;2024-01-16T10:58:57;40.13;;;11.70;;
3453;SDS011;1741;51.294;8.608;2024-01-16T11:01:54;39.40;;;11.20;;
3453;SDS011;1741;51.294;8.608;2024-01-16T11:04:24;41.83;;;11.07;;
3453;SDS011;1741;51.294;8.608;2024-01-16T11:06:51;36.90;;;13.00;;
3453;SDS011;1741;51.294;8.608;2024-01-16T11:09:19;41.33;;;11.27;;
3453;SDS011;1741;51.294;8.608;2024-01-16T11:11:48;34.83;;;10.97;;
3453;SDS011;1741;51.294;8.608;2024-01-16T11:14:21;37.73;;;11.47;;
3453;SDS011;1741;51.294;8.608;2024-01-16T11:16:51;36.30;;;11.20;;
3453;SDS011;1741;51.294;8.608;2024-01-16T11:19:22;33.50;;;12.60;;
3453;SDS011;1741;51.294;8.608;2024-01-16T11:22:10;37.70;;;12.00;;
3453;SDS011;1741;51.294;8.608;2024-01-16T11:24:38;38.83;;;12.80;;
3453;SDS011;1741;51.294;8.608;2024-01-16T11:27:07;35.90;;;11.67;;
3453;SDS011;1741;51.294;8.608;2024-01-16T11:29:38;36.73;;;12.00;;
3453;SDS011;1741;51.294;8.608;2024-01-16T11:32:05;36.40;;;11.17;;
3453;SDS011;1741;51.294;8.608;2024-01-16T11:34:53;35.63;;;11.63;;
3453;SDS011;1741;51.294;8.608;2024-01-16T11:37:25;35.90;;;11.00;;
3453;SDS011;1741;51.294;8.608;2024-01-16T11:42:44;45.90;;;11.87;;
3453;SDS011;1741;51.294;8.608;2024-01-16T11:45:55;38.87;;;13.33;;
3453;SDS011;1741;51.294;8.608;2024-01-16T11:48:10;34.23;;;12.70;;
3453;SDS011;1741;51.294;8.608;2024-01-16T11:50:43;35.70;;;12.50;;
3453;SDS011;1741;51.294;8.608;2024-01-16T11:53:10;38.40;;;12.60;;
3453;SDS011;1741;51.294;8.608;2024-01-16T11:59:17;38.80;;;13.20;;
3453;SDS011;1741;51.294;8.608;2024-01-16T12:02:05;50.23;;;14.37;;
3453;SDS011;1741;51.294;8.608;2024-01-16T12:04:40;45.23;;;12.60;;
3453;SDS011;1741;51.294;8.608;2024-01-16T12:07:08;37.90;;;13.97;;
3453;SDS011;1741;51.294;8.608;2024-01-16T12:09:36;34.07;;;11.70;;
3453;SDS011;1741;51.294;8.608;2024-01-16T12:12:03;35.40;;;13.70;;
3453;SDS011;1741;51.294;8.608;2024-01-16T12:14:31;33.00;;;13.47;;
3453;SDS011;1741;51.294;8.608;2024-01-16T12:17:19;21.77;;;12.13;;
3453;SDS011;1741;51.294;8.608;2024-01-16T12:19:47;25.00;;;11.90;;
3453;SDS011;1741;51.294;8.608;2024-01-16T12:22:17;17.57;;;10.60;;
3453;SDS011;1741;51.294;8.608;2024-01-16T12:24:45;22.60;;;11.17;;
3453;SDS011;1741;51.294;8.608;2024-01-16T12:27:13;24.70;;;11.17;;
3453;SDS011;1741;51.294;8.608;2024-01-16T12:29:40;18.47;;;10.50;;
3453;SDS011;1741;51.294;8.608;2024-01-16T12:32:11;17.83;;;10.70;;
3453;SDS011;1741;51.294;8.608;2024-01-16T12:34:46;19.53;;;10.70;;
3453;SDS011;1741;51.294;8.608;2024-01-16T12:37:15;14.07;;;10.00;;
3453;SDS011;1741;51.294;8.608;2024-01-16T12:39:46;14.17;;;9.80;;
3453;SDS011;1741;51.294;8.608;2024-01-16T12:42:16;13.80;;;10.50;;
3453;SDS011;1741;51.294;8.608;2024-01-16T12:44:43;16.97;;;10.30;;
3453;SDS011;1741;51.294;8.608;2024-01-16T12:47:15;16.73;;;10.93;;
3453;SDS011;1741;51.294;8.608;2024-01-16T12:49:45;18.17;;;10.83;;
3453;SDS011;1741;51.294;8.608;2024-01-16T12:52:22;15.70;;;10.90;;
3453;SDS011;1741;51.294;8.608;2024-01-16T12:54:59;25.43;;;9.83;;
3453;SDS011;1741;51.294;8.608;2024-01-16T12:57:35;20.13;;;11.70;;
3453;SDS011;1741;51.294;8.608;2024-01-16T13:00:25;24.80;;;11.37;;
3453;SDS011;1741;51.294;8.608;2024-01-16T13:02:52;16.60;;;11.10;;
3453;SDS011;1741;51.294;8.608;2024-01-16T13:05:22;20.23;;;13.53;;
3453;SDS011;1741;51.294;8.608;2024-01-16T13:08:01;23.50;;;14.20;;
3453;SDS011;1741;51.294;8.608;2024-01-16T13:10:32;23.33;;;14.97;;
3453;SDS011;1741;51.294;8.608;2024-01-16T13:13:12;22.00;;;15.13;;
3453;SDS011;1741;51.294;8.608;2024-01-16T13:15:46;19.70;;;14.43;;
3453;SDS011;1741;51.294;8.608;2024-01-16T13:18:21;22.10;;;15.47;;
3453;SDS011;1741;51.294;8.608;2024-01-16T13:20:52;31.83;;;16.03;;
3453;SDS011;1741;51.294;8.608;2024-01-16T13:23:23;27.57;;;16.60;;
3453;SDS011;1741;51.294;8.608;2024-01-16T13:25:55;26.73;;;16.60;;
3453;SDS011;1741;51.294;8.608;2024-01-16T13:28:27;29.60;;;18.30;;
3453;SDS011;1741;51.294;8.608;2024-01-16T13:30:57;25.57;;;17.83;;
3453;SDS011;1741;51.294;8.608;2024-01-16T13:33:27;34.43;;;22.80;;
3453;SDS011;1741;51.294;8.608;2024-01-16T13:35:54;22.80;;;17.17;;
3453;SDS011;1741;51.294;8.608;2024-01-16T13:38:21;25.23;;;16.40;;
3453;SDS011;1741;51.294;8.608;2024-01-16T13:40:49;21.53;;;14.10;;
3453;SDS011;1741;51.294;8.608;2024-01-16T13:43:17;23.33;;;13.77;;
3453;SDS011;1741;51.294;8.608;2024-01-16T13:45:44;19.50;;;13.27;;
3453;SDS011;1741;51.294;8.608;2024-01-16T13:48:11;16.23;;;12.00;;
3453;SDS011;1741;51.294;8.608;2024-01-16T13:50:38;12.57;;;11.00;;
3453;SDS011;1741;51.294;8.608;2024-01-16T13:53:05;13.20;;;10.83;;
3453;SDS011;1741;51.294;8.608;2024-01-16T13:55:36;23.53;;;10.67;;
3453;SDS011;1741;51.294;8.608;2024-01-16T13:58:03;15.53;;;10.83;;
3453;SDS011;1741;51.294;8.608;2024-01-16T14:00:30;13.67;;;11.40;;
3453;SDS011;1741;51.294;8.608;2024-01-16T14:02:57;12.93;;;11.27;;
3453;SDS011;1741;51.294;8.608;2024-01-16T14:05:29;14.27;;;12.07;;
3453;SDS011;1741;51.294;8.608;2024-01-16T14:07:57;19.93;;;13.07;;
3453;SDS011;1741;51.294;8.608;2024-01-16T14:10:27;23.33;;;13.53;;
3453;SDS011;1741;51.294;8.608;2024-01-16T14:12:57;24.00;;;12.13;;
3453;SDS011;1741;51.294;8.608;2024-01-16T14:15:24;23.13;;;11.60;;
3453;SDS011;1741;51.294;8.608;2024-01-16T14:17:53;17.87;;;11.50;;
3453;SDS011;1741;51.294;8.608;2024-01-16T14:20:26;22.87;;;12.67;;
3453;SDS011;1741;51.294;8.608;2024-01-16T14:22:56;18.97;;;11.40;;
3453;SDS011;1741;51.294;8.608;2024-01-16T14:25:24;18.57;;;10.80;;
3453;SDS011;1741;51.294;8.608;2024-01-16T14:27:59;18.97;;;10.90;;
3453;SDS011;1741;51.294;8.608;2024-01-16T14:30:43;19.53;;;10.37;;
3453;SDS011;1741;51.294;8.608;2024-01-16T14:33:12;19.60;;;11.20;;
3453;SDS011;1741;51.294;8.608;2024-01-16T14:35:43;12.67;;;11.33;;
3453;SDS011;1741;51.294;8.608;2024-01-16T14:38:11;14.67;;;10.57;;
3453;SDS011;1741;51.294;8.608;2024-01-16T14:40:38;14.77;;;11.03;;
3453;SDS011;1741;51.294;8.608;2024-01-16T14:43:06;14.57;;;9.93;;
3453;SDS011;1741;51.294;8.608;2024-01-16T14:45:33;20.00;;;10.70;;
3453;SDS011;1741;51.294;8.608;2024-01-16T14:48:00;13.90;;;10.90;;
3453;SDS011;1741;51.294;8.608;2024-01-16T14:50:31;12.43;;;10.20;;
3453;SDS011;1741;51.294;8.608;2024-01-16T14:52:58;17.73;;;11.10;;
3453;SDS011;1741;51.294;8.608;2024-01-16T14:55:29;13.27;;;10.43;;
3453;SDS011;1741;51.294;8.608;2024-01-16T14:57:58;17.77;;;11.83;;
3453;SDS011;1741;51.294;8.608;2024-01-16T15:00:31;15.13;;;11.40;;
3453;SDS011;1741;51.294;8.608;2024-01-16T15:02:59;23.40;;;11.80;;
3453;SDS011;1741;51.294;8.608;2024-01-16T15:05:27;15.20;;;10.83;;
3453;SDS011;1741;51.294;8.608;2024-01-16T15:07:54;17.27;;;11.23;;
3453;SDS011;1741;51.294;8.608;2024-01-16T15:10:21;14.13;;;10.97;;
3453;SDS011;1741;51.294;8.608;2024-01-16T15:12:48;15.07;;;11.47;;
3453;SDS011;1741;51.294;8.608;2024-01-16T15:15:15;19.10;;;12.37;;
3453;SDS011;1741;51.294;8.608;2024-01-16T15:17:45;34.60;;;11.70;;
3453;SDS011;1741;51.294;8.608;2024-01-16T15:20:13;15.57;;;12.33;;
3453;SDS011;1741;51.294;8.608;2024-01-16T15:22:40;19.47;;;11.30;;
3453;SDS011;1741;51.294;8.608;2024-01-16T15:25:12;13.27;;;11.83;;